Flight Track Log - Related Links

Times and Time Zones

All times are in EDT time to prevent confusion due to time zone crossing. See the FDX358 flight status page for this flight to view local times or setup timezone preferences in your user account.

Time Position Orientation Groundspeed Altitude Reporting Facility
EDT Latitude Longitude Course Direction KTS MPH feet Rate Location/Type
Thu 04:56:06 PM 35.0167 -89.9667 180° South 163 188 1,400  Level KMEM
Thu 04:56:54 PM 34.9833 -89.9667 180° South 231 266 3,200 3,556 Climbing KMEM
Thu 04:57:54 PM 34.9333 -89.9167 141° Southeast 282 325 7,800 3,527 Climbing KMEM
Thu 04:59:22 PM 34.9231 -89.7747 95° East 305 351 11,900 2,960 Climbing Memphis Center
Thu 05:00:24 PM 34.9153 -89.5997 93° East 408 470 15,200 3,048 Climbing Memphis Center
Thu 05:01:26 PM 34.9153 -89.4550 90° East 455 524 18,200 3,048 Climbing Memphis Center
Thu 05:02:28 PM 34.8517 -89.3081 118° Southeast 490 564 21,500 3,048 Climbing Memphis Center
Thu 05:03:30 PM 34.7675 -89.1725 127° Southeast 495 570 24,500 3,097 Climbing Memphis Center
Thu 05:04:32 PM 34.6625 -89.0033 127° Southeast 516 594 27,900 3,504 Climbing Memphis Center
Thu 05:05:35 PM 34.5758 -88.8658 127° Southeast 517 595 31,800 2,448 Climbing Memphis Center
Thu 05:06:37 PM 34.4864 -88.7236 127° Southeast 495 570 33,000 581 Climbing Memphis Center
Thu 05:07:39 PM 34.4036 -88.5922 127° Southeast 491 565 33,000 387 Level Memphis Center
Thu 05:08:41 PM 34.3189 -88.4603 128° Southeast 494 568 33,800 968 Climbing Memphis Center
Thu 05:09:43 PM 34.2367 -88.3308 128° Southeast 493 567 35,000 581 Climbing Memphis Center
Thu 05:10:45 PM 34.1531 -88.2017 128° Southeast 492 566 35,000  Level Memphis Center
Thu 05:11:47 PM 34.0547 -88.0461 127° Southeast 491 565 35,000  Level Memphis Center
Thu 05:12:49 PM 33.9717 -87.9178 128° Southeast 491 565 35,000  Level Memphis Center
Thu 05:13:51 PM 33.8869 -87.7872 128° Southeast 494 568 35,000  Level Memphis Center
Thu 05:15:55 PM 33.7183 -87.5286 128° Southeast 495 570 35,000  Level Memphis Center
Thu 05:16:57 PM 33.6167 -87.3733 128° Southeast 495 570 35,000  Level Memphis Center
Thu 05:17:53 PM 33.5475 -87.2667 128° Southeast 505 581 35,000  Level Atlanta Center
Thu 05:18:53 PM 33.4631 -87.1389 128° Southeast 505 581 35,000  Level Atlanta Center
Thu 05:19:53 PM 33.3764 -87.0089 129° Southeast 505 581 35,000  Level Atlanta Center
Thu 05:20:53 PM 33.2858 -86.8717 128° Southeast 497 572 35,000 -50 Level Atlanta Center
Thu 05:21:53 PM 33.2031 -86.7425 127° Southeast 497 572 34,900 -50 Descending Atlanta Center
Thu 05:22:53 PM 33.1181 -86.6158 129° Southeast 490 564 34,900 50 Level Atlanta Center
Thu 05:23:53 PM 33.0350 -86.4919 129° Southeast 479 551 35,000 50 Climbing Atlanta Center
Thu 05:24:53 PM 32.9481 -86.3583 128° Southeast 486 559 35,000  Level Atlanta Center
Thu 05:25:53 PM 32.8628 -86.2300 128° Southeast 486 559 35,000  Level Atlanta Center
Thu 05:26:53 PM 32.7769 -86.1092 130° Southeast 486 559 35,000 -50 Level Atlanta Center
Thu 05:27:53 PM 32.6914 -85.9814 128° Southeast 486 559 34,900  Descending Atlanta Center
Thu 05:28:53 PM 32.6056 -85.8586 130° Southeast 486 559 35,000 50 Climbing Atlanta Center
Thu 05:29:53 PM 32.5197 -85.7336 129° Southeast 486 559 35,000  Level Atlanta Center
Thu 05:30:53 PM 32.4339 -85.6089 129° Southeast 486 559 35,000  Level Atlanta Center
Thu 05:31:53 PM 32.3558 -85.4969 130° Southeast 486 559 35,000  Level Atlanta Center
Thu 05:32:53 PM 32.2697 -85.3728 129° Southeast 486 559 35,000 -25 Level Atlanta Center
Thu 05:35:57 PM 31.9989 -84.9822 129° Southeast 478 550 34,900 -25 Descending Jacksonville Center
Thu 05:36:57 PM 31.9153 -84.8628 129° Southeast 478 550 34,900 50 Level Jacksonville Center
Thu 05:37:57 PM 31.8272 -84.7411 130° Southeast 478 550 35,000 50 Climbing Jacksonville Center
Thu 05:38:57 PM 31.7414 -84.6197 130° Southeast 478 550 35,000  Level Jacksonville Center
Thu 05:39:57 PM 31.6511 -84.4936 130° Southeast 485 558 35,000  Level Jacksonville Center
Thu 05:40:57 PM 31.5628 -84.3750 131° Southeast 485 558 35,000 -50 Level Jacksonville Center
Thu 05:41:57 PM 31.4700 -84.2639 134° Southeast 485 558 34,900 -50 Descending Jacksonville Center
Thu 05:42:57 PM 31.3753 -84.1483 134° Southeast 479 551 34,900 50 Level Jacksonville Center
Thu 05:43:57 PM 31.2825 -84.0350 134° Southeast 479 551 35,000 50 Climbing Jacksonville Center
Thu 05:44:57 PM 31.1914 -83.9197 133° Southeast 479 551 35,000  Level Jacksonville Center
Thu 05:45:57 PM 31.0964 -83.8025 133° Southeast 485 558 35,000  Level Jacksonville Center
Thu 05:46:57 PM 31.0011 -83.6900 135° Southeast 485 558 35,000  Level Jacksonville Center
Thu 05:47:57 PM 30.9078 -83.5731 133° Southeast 485 558 35,000 -650 Level Jacksonville Center
Thu 05:48:57 PM 30.8164 -83.4611 134° Southeast 485 558 33,700 -1,950 Descending Jacksonville Center
Thu 05:49:57 PM 30.7231 -83.3419 132° Southeast 485 558 31,100 -2,900 Descending Jacksonville Center
Thu 05:50:57 PM 30.6253 -83.2281 135° Southeast 490 564 27,900 -2,100 Descending Jacksonville Center
Thu 05:51:57 PM 30.5314 -83.1144 134° Southeast 490 564 26,900 -303 Descending Jacksonville Center
Thu 05:57:33 PM 29.9992 -82.4867 138° Southeast 475 547 25,900 -318 Descending FlightAware ADS-B
Thu 05:57:56 PM 29.9591 -82.4525 155° Southeast 461 531 25,000 -1,397 Descending FlightAware ADS-B
Thu 05:59:29 PM 29.7786 -82.3603 157° South 448 516 23,200 -1,519 Descending FlightAware ADS-B
Thu 06:00:34 PM 29.6591 -82.3022 157° South 424 488 21,000 -2,388 Descending FlightAware ADS-B
Thu 06:01:07 PM 29.6058 -82.2769 157° South 417 480 19,300 -1,600 Descending FlightAware ADS-B
Thu 06:01:49 PM 29.5282 -82.2390 158° South 417 480 19,000 -204 Descending FlightAware ADS-B
Thu 06:03:34 PM 29.3378 -82.1485 157° South 415 478 18,800 -616 Descending FlightAware ADS-B
Thu 06:04:15 PM 29.2656 -82.1136 157° South 413 475 17,500 -2,175 Descending FlightAware ADS-B
Thu 06:04:54 PM 29.1970 -82.0808 157° South 403 464 15,900 -2,325 Descending FlightAware ADS-B
Thu 06:05:35 PM 29.1278 -82.0477 158° South 391 450 14,400 -2,195 Descending FlightAware ADS-B
Thu 06:06:16 PM 29.0614 -82.0163 157° South 368 423 12,900 -1,800 Descending FlightAware ADS-B
Thu 06:06:55 PM 29.0011 -81.9877 157° South 337 388 12,000 -1,083 Descending FlightAware ADS-B
Thu 06:07:28 PM 28.9592 -81.9668 157° South 308 354 11,600 -594 Descending FlightAware ADS-B
Thu 06:08:36 PM 28.8766 -81.9191 129° Southeast 299 344 11,000 -766 Descending FlightAware ADS-B
Thu 06:10:36 PM 28.8163 -81.7405 104° East 296 341 9,200 -943 Descending FlightAware ADS-B
Thu 06:10:56 PM 28.8094 -81.7105 105° East 290 334 8,800 -1,500 Descending FlightAware ADS-B
Thu 06:11:56 PM 28.7892 -81.6239 104° East 275 316 7,200 -1,350 Descending FlightAware ADS-B
Thu 06:12:16 PM 28.7831 -81.5957 104° East 274 315 7,000 -308 Descending FlightAware ADS-B
Thu 06:12:35 PM 28.7771 -81.5696 105° East 258 297 7,000 -700 Level FlightAware ADS-B
Thu 06:13:16 PM 28.7660 -81.5192 104° East 234 269 6,300 -741 Descending FlightAware ADS-B
Thu 06:13:56 PM 28.7551 -81.4723 104° East 230 265 6,000 -825 Descending FlightAware ADS-B
Thu 06:14:36 PM 28.7423 -81.4258 127° Southeast 233 268 5,200 -1,154 Descending FlightAware ADS-B
Thu 06:14:48 PM 28.7324 -81.4164 148° Southeast 229 264 5,000 -1,200 Descending FlightAware ADS-B (KSFB)
Thu 06:14:56 PM 28.7249 -81.4122 157° South 227 261 4,800 -1,111 Descending FlightAware ADS-B (KSFB)
Thu 06:15:15 PM 28.7068 -81.4026 154° Southeast 225 259 4,500 -750 Descending FlightAware ADS-B
Thu 06:15:36 PM 28.6874 -81.3916 151° Southeast 216 249 4,300 -1,317 Descending FlightAware ADS-B
Thu 06:15:56 PM 28.6696 -81.3810 155° Southeast 221 254 3,600 -1,350 Descending FlightAware ADS-B (KSFB)
Thu 06:16:16 PM 28.6513 -81.3713 156° South 213 245 3,400 -900 Descending FlightAware ADS-B
Thu 06:16:36 PM 28.6330 -81.3624 157° South 212 244 3,000 -900 Descending FlightAware ADS-B
Thu 06:16:56 PM 28.6150 -81.3537 157° South 209 241 2,800 -732 Descending FlightAware ADS-B
Thu 06:17:17 PM 28.5964 -81.3443 157° South 212 244 2,500 -450 Descending FlightAware ADS-B (KSFB)
Thu 06:17:36 PM 28.5792 -81.3358 156° South 207 238 2,500 -154 Level FlightAware ADS-B
Thu 06:18:35 PM 28.5325 -81.3239 181° South 166 191 2,300 -600 Descending FlightAware ADS-B
Thu 06:18:56 PM 28.5165 -81.3232 178° South 160 184 1,700 -1,377 Descending FlightAware ADS-B
Thu 06:19:36 PM 28.4877 -81.3229 179° South 152 175 900 -1,119 Descending FlightAware ADS-B
Thu 06:19:55 PM 28.4739 -81.3226 179° South 148 170 600 -800 Descending FlightAware ADS-B
Thu 06:20:36 PM 28.4461 -81.3223 180° South 153 176 100 -732 Descending FlightAware ADS-B

Login

Don't have an account? Register now (free) for customized features, flight alerts, and more!